sensor_id;sensor_type;location;lat;lon;timestamp;pressure;altitude;pressure_sealevel;temperature;humidity
53262;BME280;39658;51.090;-1.786;2023-08-07T00:00:37;101725.47;;;10.59;100.00
53262;BME280;39658;51.090;-1.786;2023-08-07T00:03:03;101716.56;;;10.62;100.00
53262;BME280;39658;51.090;-1.786;2023-08-07T00:05:30;101714.53;;;10.67;100.00
53262;BME280;39658;51.090;-1.786;2023-08-07T00:07:57;101715.13;;;10.72;100.00
53262;BME280;39658;51.090;-1.786;2023-08-07T00:10:25;101706.53;;;10.68;100.00
53262;BME280;39658;51.090;-1.786;2023-08-07T00:12:52;101707.47;;;10.67;100.00
53262;BME280;39658;51.090;-1.786;2023-08-07T00:15:19;101711.19;;;10.63;100.00
53262;BME280;39658;51.090;-1.786;2023-08-07T00:17:46;101713.91;;;10.62;100.00
53262;BME280;39658;51.090;-1.786;2023-08-07T00:20:12;101708.94;;;10.55;100.00
53262;BME280;39658;51.090;-1.786;2023-08-07T00:22:39;101710.63;;;10.56;100.00
53262;BME280;39658;51.090;-1.786;2023-08-07T00:25:06;101705.38;;;10.56;100.00
53262;BME280;39658;51.090;-1.786;2023-08-07T00:27:35;101704.59;;;10.54;100.00
53262;BME280;39658;51.090;-1.786;2023-08-07T00:30:01;101700.59;;;10.47;100.00
53262;BME280;39658;51.090;-1.786;2023-08-07T00:32:28;101698.31;;;10.39;100.00
53262;BME280;39658;51.090;-1.786;2023-08-07T00:34:55;101704.75;;;10.34;100.00
53262;BME280;39658;51.090;-1.786;2023-08-07T00:37:22;101692.59;;;10.30;100.00
53262;BME280;39658;51.090;-1.786;2023-08-07T00:39:49;101697.31;;;10.23;100.00
53262;BME280;39658;51.090;-1.786;2023-08-07T00:42:15;101698.47;;;10.17;100.00
53262;BME280;39658;51.090;-1.786;2023-08-07T00:44:43;101692.72;;;10.09;100.00
53262;BME280;39658;51.090;-1.786;2023-08-07T00:47:10;101690.38;;;10.03;100.00
53262;BME280;39658;51.090;-1.786;2023-08-07T00:49:37;101684.50;;;9.98;100.00
53262;BME280;39658;51.090;-1.786;2023-08-07T00:52:05;101677.72;;;9.92;100.00
53262;BME280;39658;51.090;-1.786;2023-08-07T00:54:32;101679.75;;;9.87;100.00
53262;BME280;39658;51.090;-1.786;2023-08-07T00:57:06;101681.78;;;9.80;100.00
53262;BME280;39658;51.090;-1.786;2023-08-07T00:59:36;101681.03;;;9.78;100.00
53262;BME280;39658;51.090;-1.786;2023-08-07T01:02:04;101678.59;;;9.74;100.00
53262;BME280;39658;51.090;-1.786;2023-08-07T01:04:31;101681.53;;;9.67;100.00
53262;BME280;39658;51.090;-1.786;2023-08-07T01:06:58;101683.38;;;9.65;100.00
53262;BME280;39658;51.090;-1.786;2023-08-07T01:09:25;101671.28;;;9.61;100.00
53262;BME280;39658;51.090;-1.786;2023-08-07T01:11:57;101668.88;;;9.57;100.00
53262;BME280;39658;51.090;-1.786;2023-08-07T01:14:31;101669.00;;;9.53;100.00
53262;BME280;39658;51.090;-1.786;2023-08-07T01:17:03;101672.59;;;9.52;100.00
53262;BME280;39658;51.090;-1.786;2023-08-07T01:19:34;101663.81;;;9.52;100.00
53262;BME280;39658;51.090;-1.786;2023-08-07T01:22:07;101669.00;;;9.53;100.00
53262;BME280;39658;51.090;-1.786;2023-08-07T01:24:34;101674.19;;;9.55;100.00
53262;BME280;39658;51.090;-1.786;2023-08-07T01:27:07;101673.44;;;9.53;100.00
53262;BME280;39658;51.090;-1.786;2023-08-07T01:29:44;101670.09;;;9.49;100.00
53262;BME280;39658;51.090;-1.786;2023-08-07T01:32:21;101679.97;;;9.44;100.00
53262;BME280;39658;51.090;-1.786;2023-08-07T01:34:49;101675.72;;;9.42;100.00
53262;BME280;39658;51.090;-1.786;2023-08-07T01:37:19;101685.56;;;9.37;100.00
53262;BME280;39658;51.090;-1.786;2023-08-07T01:39:48;101677.75;;;9.35;100.00
53262;BME280;39658;51.090;-1.786;2023-08-07T01:42:16;101676.06;;;9.34;100.00
53262;BME280;39658;51.090;-1.786;2023-08-07T01:44:43;101676.97;;;9.33;100.00
53262;BME280;39658;51.090;-1.786;2023-08-07T01:47:10;101683.34;;;9.27;100.00
53262;BME280;39658;51.090;-1.786;2023-08-07T01:49:37;101684.38;;;9.25;100.00
53262;BME280;39658;51.090;-1.786;2023-08-07T01:52:05;101686.41;;;9.18;100.00
53262;BME280;39658;51.090;-1.786;2023-08-07T01:54:33;101690.25;;;9.11;100.00
53262;BME280;39658;51.090;-1.786;2023-08-07T01:57:00;101684.25;;;9.07;100.00
53262;BME280;39658;51.090;-1.786;2023-08-07T01:59:26;101685.97;;;9.08;100.00
53262;BME280;39658;51.090;-1.786;2023-08-07T02:01:53;101674.72;;;9.05;100.00
53262;BME280;39658;51.090;-1.786;2023-08-07T02:04:20;101676.41;;;9.06;100.00
53262;BME280;39658;51.090;-1.786;2023-08-07T02:06:47;101673.00;;;9.04;100.00
53262;BME280;39658;51.090;-1.786;2023-08-07T02:09:13;101675.78;;;9.01;100.00
53262;BME280;39658;51.090;-1.786;2023-08-07T02:11:41;101673.16;;;9.01;100.00
53262;BME280;39658;51.090;-1.786;2023-08-07T02:14:09;101667.81;;;9.02;100.00
53262;BME280;39658;51.090;-1.786;2023-08-07T02:16:36;101664.41;;;9.00;100.00
53262;BME280;39658;51.090;-1.786;2023-08-07T02:19:03;101671.41;;;9.01;100.00
53262;BME280;39658;51.090;-1.786;2023-08-07T02:21:29;101676.66;;;9.01;100.00
53262;BME280;39658;51.090;-1.786;2023-08-07T02:23:56;101675.78;;;9.01;100.00
53262;BME280;39658;51.090;-1.786;2023-08-07T02:26:23;101680.19;;;9.00;100.00
53262;BME280;39658;51.090;-1.786;2023-08-07T02:28:51;101683.66;;;9.01;100.00
53262;BME280;39658;51.090;-1.786;2023-08-07T02:31:18;101684.69;;;8.98;100.00
53262;BME280;39658;51.090;-1.786;2023-08-07T02:33:45;101677.00;;;8.93;100.00
53262;BME280;39658;51.090;-1.786;2023-08-07T02:36:11;101673.47;;;8.93;100.00
53262;BME280;39658;51.090;-1.786;2023-08-07T02:38:38;101681.56;;;8.88;100.00
53262;BME280;39658;51.090;-1.786;2023-08-07T02:41:05;101683.50;;;8.85;100.00
53262;BME280;39658;51.090;-1.786;2023-08-07T02:43:31;101677.31;;;8.86;100.00
53262;BME280;39658;51.090;-1.786;2023-08-07T02:46:01;101685.16;;;8.87;100.00
53262;BME280;39658;51.090;-1.786;2023-08-07T02:48:27;101687.91;;;8.84;100.00
53262;BME280;39658;51.090;-1.786;2023-08-07T02:50:54;101675.03;;;8.78;100.00
53262;BME280;39658;51.090;-1.786;2023-08-07T02:53:21;101683.19;;;8.72;100.00
53262;BME280;39658;51.090;-1.786;2023-08-07T02:55:48;101680.81;;;8.66;100.00
53262;BME280;39658;51.090;-1.786;2023-08-07T02:58:14;101673.06;;;8.62;100.00
53262;BME280;39658;51.090;-1.786;2023-08-07T03:00:41;101675.69;;;8.62;100.00
53262;BME280;39658;51.090;-1.786;2023-08-07T03:03:10;101676.66;;;8.60;100.00
53262;BME280;39658;51.090;-1.786;2023-08-07T03:05:37;101667.25;;;8.54;100.00
53262;BME280;39658;51.090;-1.786;2023-08-07T03:08:04;101670.13;;;8.48;100.00
53262;BME280;39658;51.090;-1.786;2023-08-07T03:10:30;101670.25;;;8.45;100.00
53262;BME280;39658;51.090;-1.786;2023-08-07T03:12:57;101681.94;;;8.38;100.00
53262;BME280;39658;51.090;-1.786;2023-08-07T03:15:24;101675.94;;;8.34;100.00
53262;BME280;39658;51.090;-1.786;2023-08-07T03:17:50;101676.88;;;8.33;100.00
53262;BME280;39658;51.090;-1.786;2023-08-07T03:20:19;101668.03;;;8.34;100.00
53262;BME280;39658;51.090;-1.786;2023-08-07T03:22:45;101667.19;;;8.34;100.00
53262;BME280;39658;51.090;-1.786;2023-08-07T03:25:12;101674.38;;;8.30;100.00
53262;BME280;39658;51.090;-1.786;2023-08-07T03:27:39;101669.22;;;8.27;100.00
53262;BME280;39658;51.090;-1.786;2023-08-07T03:30:06;101669.41;;;8.22;100.00
53262;BME280;39658;51.090;-1.786;2023-08-07T03:32:33;101671.31;;;8.19;100.00
53262;BME280;39658;51.090;-1.786;2023-08-07T03:35:00;101673.03;;;8.20;100.00
53262;BME280;39658;51.090;-1.786;2023-08-07T03:37:28;101659.88;;;8.20;100.00
53262;BME280;39658;51.090;-1.786;2023-08-07T03:39:55;101659.16;;;8.16;100.00
53262;BME280;39658;51.090;-1.786;2023-08-07T03:42:21;101660.00;;;8.17;100.00
53262;BME280;39658;51.090;-1.786;2023-08-07T03:44:48;101656.53;;;8.16;100.00
53262;BME280;39658;51.090;-1.786;2023-08-07T03:47:15;101658.38;;;8.14;100.00
53262;BME280;39658;51.090;-1.786;2023-08-07T03:49:42;101656.72;;;8.12;100.00
53262;BME280;39658;51.090;-1.786;2023-08-07T03:52:08;101666.50;;;8.08;100.00
53262;BME280;39658;51.090;-1.786;2023-08-07T03:54:36;101660.31;;;8.09;100.00
53262;BME280;39658;51.090;-1.786;2023-08-07T03:57:03;101668.19;;;8.09;100.00
53262;BME280;39658;51.090;-1.786;2023-08-07T03:59:30;101661.13;;;8.11;100.00
53262;BME280;39658;51.090;-1.786;2023-08-07T04:01:57;101662.56;;;8.18;100.00
53262;BME280;39658;51.090;-1.786;2023-08-07T04:04:24;101662.19;;;8.27;100.00
53262;BME280;39658;51.090;-1.786;2023-08-07T04:06:50;101672.94;;;8.43;100.00
53262;BME280;39658;51.090;-1.786;2023-08-07T04:09:17;101665.28;;;8.59;100.00
53262;BME280;39658;51.090;-1.786;2023-08-07T04:11:45;101662.72;;;8.78;100.00
53262;BME280;39658;51.090;-1.786;2023-08-07T04:14:12;101653.72;;;8.84;100.00
53262;BME280;39658;51.090;-1.786;2023-08-07T04:16:39;101670.41;;;8.83;100.00
53262;BME280;39658;51.090;-1.786;2023-08-07T04:19:06;101677.25;;;8.87;100.00
53262;BME280;39658;51.090;-1.786;2023-08-07T04:21:33;101671.00;;;8.90;100.00
53262;BME280;39658;51.090;-1.786;2023-08-07T04:24:00;101666.47;;;8.93;100.00
53262;BME280;39658;51.090;-1.786;2023-08-07T04:26:27;101675.00;;;8.98;100.00
53262;BME280;39658;51.090;-1.786;2023-08-07T04:28:55;101670.88;;;9.12;100.00
53262;BME280;39658;51.090;-1.786;2023-08-07T04:31:21;101682.56;;;9.25;100.00
53262;BME280;39658;51.090;-1.786;2023-08-07T04:33:48;101672.63;;;9.32;100.00
53262;BME280;39658;51.090;-1.786;2023-08-07T04:36:15;101673.34;;;9.36;100.00
53262;BME280;39658;51.090;-1.786;2023-08-07T04:38:42;101674.28;;;9.34;100.00
53262;BME280;39658;51.090;-1.786;2023-08-07T04:41:09;101676.06;;;9.34;100.00
53262;BME280;39658;51.090;-1.786;2023-08-07T04:43:36;101681.47;;;9.31;100.00
53262;BME280;39658;51.090;-1.786;2023-08-07T04:46:04;101686.13;;;9.24;100.00
53262;BME280;39658;51.090;-1.786;2023-08-07T04:48:31;101684.63;;;9.19;100.00
53262;BME280;39658;51.090;-1.786;2023-08-07T04:50:58;101675.16;;;9.14;100.00
53262;BME280;39658;51.090;-1.786;2023-08-07T04:53:25;101670.81;;;9.13;100.00
53262;BME280;39658;51.090;-1.786;2023-08-07T04:55:51;101687.53;;;9.12;100.00
53262;BME280;39658;51.090;-1.786;2023-08-07T04:58:18;101698.13;;;9.11;100.00
53262;BME280;39658;51.090;-1.786;2023-08-07T05:00:45;101700.69;;;9.12;100.00
53262;BME280;39658;51.090;-1.786;2023-08-07T05:03:13;101698.06;;;9.12;100.00
53262;BME280;39658;51.090;-1.786;2023-08-07T05:05:43;101698.06;;;9.12;100.00
53262;BME280;39658;51.090;-1.786;2023-08-07T05:08:10;101697.06;;;9.15;100.00
53262;BME280;39658;51.090;-1.786;2023-08-07T05:10:37;101700.44;;;9.19;100.00
53262;BME280;39658;51.090;-1.786;2023-08-07T05:13:04;101707.16;;;9.24;100.00
53262;BME280;39658;51.090;-1.786;2023-08-07T05:15:30;101714.03;;;9.28;100.00
53262;BME280;39658;51.090;-1.786;2023-08-07T05:17:57;101720.06;;;9.30;100.00
53262;BME280;39658;51.090;-1.786;2023-08-07T05:20:25;101721.63;;;9.34;100.00
53262;BME280;39658;51.090;-1.786;2023-08-07T05:22:52;101718.16;;;9.34;100.00
53262;BME280;39658;51.090;-1.786;2023-08-07T05:25:19;101720.13;;;9.29;100.00
53262;BME280;39658;51.090;-1.786;2023-08-07T05:27:46;101716.78;;;9.25;100.00
53262;BME280;39658;51.090;-1.786;2023-08-07T05:30:14;101716.84;;;9.24;100.00
53262;BME280;39658;51.090;-1.786;2023-08-07T05:32:41;101719.56;;;9.22;100.00
53262;BME280;39658;51.090;-1.786;2023-08-07T05:35:08;101720.34;;;9.24;100.00
53262;BME280;39658;51.090;-1.786;2023-08-07T05:37:37;101729.75;;;9.30;100.00
53262;BME280;39658;51.090;-1.786;2023-08-07T05:40:05;101729.59;;;9.33;100.00
53262;BME280;39658;51.090;-1.786;2023-08-07T05:42:32;101738.22;;;9.37;100.00
53262;BME280;39658;51.090;-1.786;2023-08-07T05:44:59;101745.19;;;9.38;100.00
53262;BME280;39658;51.090;-1.786;2023-08-07T05:47:26;101746.78;;;9.42;100.00
53262;BME280;39658;51.090;-1.786;2023-08-07T05:49:53;101746.09;;;9.57;100.00
53262;BME280;39658;51.090;-1.786;2023-08-07T05:52:20;101746.16;;;9.75;100.00
53262;BME280;39658;51.090;-1.786;2023-08-07T05:54:48;101748.72;;;9.95;100.00
53262;BME280;39658;51.090;-1.786;2023-08-07T05:57:15;101737.53;;;10.09;100.00
53262;BME280;39658;51.090;-1.786;2023-08-07T05:59:42;101740.50;;;10.20;100.00
53262;BME280;39658;51.090;-1.786;2023-08-07T06:02:09;101741.91;;;10.28;100.00
53262;BME280;39658;51.090;-1.786;2023-08-07T06:04:37;101740.81;;;10.33;100.00
53262;BME280;39658;51.090;-1.786;2023-08-07T06:07:04;101750.09;;;10.40;100.00
53262;BME280;39658;51.090;-1.786;2023-08-07T06:09:31;101740.06;;;10.49;100.00
53262;BME280;39658;51.090;-1.786;2023-08-07T06:12:00;101741.44;;;10.56;100.00
53262;BME280;39658;51.090;-1.786;2023-08-07T06:14:26;101745.41;;;10.65;100.00
53262;BME280;39658;51.090;-1.786;2023-08-07T06:16:54;101756.88;;;10.81;100.00
53262;BME280;39658;51.090;-1.786;2023-08-07T06:19:23;101758.13;;;11.26;100.00
53262;BME280;39658;51.090;-1.786;2023-08-07T06:21:52;101763.31;;;11.77;100.00
53262;BME280;39658;51.090;-1.786;2023-08-07T06:24:19;101759.97;;;12.23;100.00
53262;BME280;39658;51.090;-1.786;2023-08-07T06:26:45;101752.34;;;12.79;100.00
53262;BME280;39658;51.090;-1.786;2023-08-07T06:29:13;101766.47;;;13.08;100.00
53262;BME280;39658;51.090;-1.786;2023-08-07T06:31:40;101769.44;;;13.33;100.00
53262;BME280;39658;51.090;-1.786;2023-08-07T06:34:07;101772.50;;;13.41;100.00
53262;BME280;39658;51.090;-1.786;2023-08-07T06:36:34;101773.53;;;13.53;100.00
53262;BME280;39658;51.090;-1.786;2023-08-07T06:39:00;101778.47;;;13.59;100.00
53262;BME280;39658;51.090;-1.786;2023-08-07T06:41:29;101780.31;;;13.86;100.00
53262;BME280;39658;51.090;-1.786;2023-08-07T06:43:56;101789.63;;;13.78;100.00
53262;BME280;39658;51.090;-1.786;2023-08-07T06:46:24;101785.19;;;13.64;100.00
53262;BME280;39658;51.090;-1.786;2023-08-07T06:48:53;101784.75;;;13.13;100.00
53262;BME280;39658;51.090;-1.786;2023-08-07T06:51:19;101785.72;;;12.66;100.00
53262;BME280;39658;51.090;-1.786;2023-08-07T06:53:46;101783.59;;;12.26;100.00
53262;BME280;39658;51.090;-1.786;2023-08-07T06:56:13;101776.16;;;12.01;100.00
53262;BME280;39658;51.090;-1.786;2023-08-07T06:58:39;101780.63;;;11.83;100.00
53262;BME280;39658;51.090;-1.786;2023-08-07T07:01:06;101778.31;;;11.77;100.00
53262;BME280;39658;51.090;-1.786;2023-08-07T07:03:34;101779.22;;;12.25;100.00
53262;BME280;39658;51.090;-1.786;2023-08-07T07:06:01;101778.56;;;12.68;100.00
53262;BME280;39658;51.090;-1.786;2023-08-07T07:08:28;101782.22;;;12.96;100.00
53262;BME280;39658;51.090;-1.786;2023-08-07T07:10:55;101792.00;;;13.09;100.00
53262;BME280;39658;51.090;-1.786;2023-08-07T07:13:23;101790.63;;;13.33;100.00
53262;BME280;39658;51.090;-1.786;2023-08-07T07:15:53;101802.50;;;13.41;100.00
53262;BME280;39658;51.090;-1.786;2023-08-07T07:18:20;101823.50;;;13.59;100.00
53262;BME280;39658;51.090;-1.786;2023-08-07T07:20:56;101842.81;;;13.61;100.00
53262;BME280;39658;51.090;-1.786;2023-08-07T07:23:22;101854.47;;;13.58;100.00
53262;BME280;39658;51.090;-1.786;2023-08-07T07:25:48;101862.88;;;13.79;100.00
53262;BME280;39658;51.090;-1.786;2023-08-07T07:28:15;101869.69;;;13.98;100.00
53262;BME280;39658;51.090;-1.786;2023-08-07T07:30:42;101870.84;;;14.08;100.00
53262;BME280;39658;51.090;-1.786;2023-08-07T07:33:08;101875.50;;;14.05;100.00
53262;BME280;39658;51.090;-1.786;2023-08-07T07:35:37;101861.56;;;14.01;100.00
53262;BME280;39658;51.090;-1.786;2023-08-07T07:38:05;101838.38;;;14.05;100.00
53262;BME280;39658;51.090;-1.786;2023-08-07T07:40:34;101801.53;;;14.00;100.00
53262;BME280;39658;51.090;-1.786;2023-08-07T07:43:01;101793.16;;;14.21;100.00
53262;BME280;39658;51.090;-1.786;2023-08-07T07:45:28;101766.22;;;14.27;100.00
53262;BME280;39658;51.090;-1.786;2023-08-07T07:47:54;101751.56;;;14.48;100.00
53262;BME280;39658;51.090;-1.786;2023-08-07T07:50:21;101724.50;;;14.56;100.00
53262;BME280;39658;51.090;-1.786;2023-08-07T07:52:48;101775.41;;;14.63;100.00
53262;BME280;39658;51.090;-1.786;2023-08-07T07:55:16;101781.34;;;14.66;100.00
53262;BME280;39658;51.090;-1.786;2023-08-07T07:57:43;101785.84;;;14.79;100.00
53262;BME280;39658;51.090;-1.786;2023-08-07T08:00:11;101789.78;;;14.73;100.00
53262;BME280;39658;51.090;-1.786;2023-08-07T08:02:39;101802.97;;;14.87;100.00
53262;BME280;39658;51.090;-1.786;2023-08-07T08:05:08;101812.34;;;15.06;100.00
53262;BME280;39658;51.090;-1.786;2023-08-07T08:07:36;101809.09;;;15.28;100.00
53262;BME280;39658;51.090;-1.786;2023-08-07T08:10:05;101806.84;;;15.60;100.00
53262;BME280;39658;51.090;-1.786;2023-08-07T08:12:34;101795.03;;;15.90;100.00
53262;BME280;39658;51.090;-1.786;2023-08-07T08:15:01;101787.78;;;16.05;100.00
53262;BME280;39658;51.090;-1.786;2023-08-07T08:17:28;101777.69;;;15.97;100.00
53262;BME280;39658;51.090;-1.786;2023-08-07T08:19:54;101790.88;;;16.23;100.00
53262;BME280;39658;51.090;-1.786;2023-08-07T08:22:21;101790.78;;;16.49;100.00
53262;BME280;39658;51.090;-1.786;2023-08-07T08:24:48;101795.28;;;16.84;100.00
53262;BME280;39658;51.090;-1.786;2023-08-07T08:27:15;101797.56;;;17.01;100.00
53262;BME280;39658;51.090;-1.786;2023-08-07T08:29:44;101786.94;;;17.35;100.00
53262;BME280;39658;51.090;-1.786;2023-08-07T08:32:11;101785.50;;;17.43;100.00
53262;BME280;39658;51.090;-1.786;2023-08-07T08:34:38;101770.94;;;17.69;100.00
53262;BME280;39658;51.090;-1.786;2023-08-07T08:37:05;101801.25;;;17.80;100.00
53262;BME280;39658;51.090;-1.786;2023-08-07T08:39:32;101820.94;;;18.01;100.00
53262;BME280;39658;51.090;-1.786;2023-08-07T08:41:59;101815.53;;;18.24;100.00
53262;BME280;39658;51.090;-1.786;2023-08-07T08:44:28;101806.84;;;18.10;100.00
53262;BME280;39658;51.090;-1.786;2023-08-07T08:46:59;101805.59;;;18.15;100.00
53262;BME280;39658;51.090;-1.786;2023-08-07T08:49:32;101825.31;;;18.02;100.00
53262;BME280;39658;51.090;-1.786;2023-08-07T08:51:59;101846.19;;;18.41;100.00
53262;BME280;39658;51.090;-1.786;2023-08-07T08:54:27;101862.31;;;18.62;100.00
53262;BME280;39658;51.090;-1.786;2023-08-07T08:56:54;101843.91;;;18.80;100.00
53262;BME280;39658;51.090;-1.786;2023-08-07T08:59:22;101812.00;;;18.99;100.00
53262;BME280;39658;51.090;-1.786;2023-08-07T09:01:51;101883.78;;;19.04;100.00
53262;BME280;39658;51.090;-1.786;2023-08-07T09:04:19;101850.22;;;19.11;100.00
53262;BME280;39658;51.090;-1.786;2023-08-07T09:06:46;101842.06;;;19.34;100.00
53262;BME280;39658;51.090;-1.786;2023-08-07T09:09:14;101835.38;;;19.49;100.00
53262;BME280;39658;51.090;-1.786;2023-08-07T09:11:41;101806.72;;;19.51;100.00
53262;BME280;39658;51.090;-1.786;2023-08-07T09:14:09;101803.06;;;19.93;100.00
53262;BME280;39658;51.090;-1.786;2023-08-07T09:16:38;101745.75;;;19.96;100.00
53262;BME280;39658;51.090;-1.786;2023-08-07T09:19:06;101718.44;;;20.41;100.00
53262;BME280;39658;51.090;-1.786;2023-08-07T09:21:34;101701.88;;;21.04;100.00
53262;BME280;39658;51.090;-1.786;2023-08-07T09:24:01;101665.22;;;20.95;100.00
53262;BME280;39658;51.090;-1.786;2023-08-07T09:26:28;101451.41;;;21.07;100.00
53262;BME280;39658;51.090;-1.786;2023-08-07T09:28:55;101557.94;;;21.86;100.00
53262;BME280;39658;51.090;-1.786;2023-08-07T09:31:23;101532.22;;;22.02;100.00
53262;BME280;39658;51.090;-1.786;2023-08-07T09:33:52;101205.38;;;22.37;100.00
53262;BME280;39658;51.090;-1.786;2023-08-07T09:36:19;101099.63;;;23.10;100.00
53262;BME280;39658;51.090;-1.786;2023-08-07T09:38:50;100991.16;;;23.88;100.00
53262;BME280;39658;51.090;-1.786;2023-08-07T09:41:17;101002.47;;;21.77;100.00
53262;BME280;39658;51.090;-1.786;2023-08-07T09:43:44;101046.91;;;21.87;100.00
53262;BME280;39658;51.090;-1.786;2023-08-07T09:46:11;101071.59;;;21.24;100.00
53262;BME280;39658;51.090;-1.786;2023-08-07T09:48:42;100980.09;;;23.13;100.00
53262;BME280;39658;51.090;-1.786;2023-08-07T09:51:09;101013.44;;;21.24;100.00
53262;BME280;39658;51.090;-1.786;2023-08-07T09:53:36;100997.72;;;22.28;100.00
53262;BME280;39658;51.090;-1.786;2023-08-07T09:56:04;101026.06;;;22.95;100.00
53262;BME280;39658;51.090;-1.786;2023-08-07T09:58:31;101003.34;;;23.52;100.00
53262;BME280;39658;51.090;-1.786;2023-08-07T10:01:02;100994.81;;;23.48;100.00
53262;BME280;39658;51.090;-1.786;2023-08-07T10:03:29;101037.72;;;24.11;100.00
53262;BME280;39658;51.090;-1.786;2023-08-07T10:05:57;101135.59;;;23.09;100.00
53262;BME280;39658;51.090;-1.786;2023-08-07T10:08:24;101025.19;;;23.34;100.00
53262;BME280;39658;51.090;-1.786;2023-08-07T10:10:51;101019.47;;;24.51;100.00
53262;BME280;39658;51.090;-1.786;2023-08-07T10:13:21;101079.50;;;25.20;100.00
53262;BME280;39658;51.090;-1.786;2023-08-07T10:15:49;101128.44;;;25.17;100.00
53262;BME280;39658;51.090;-1.786;2023-08-07T10:18:17;101211.81;;;24.35;100.00
53262;BME280;39658;51.090;-1.786;2023-08-07T10:20:43;101140.06;;;24.34;100.00
53262;BME280;39658;51.090;-1.786;2023-08-07T10:23:11;101008.56;;;23.54;100.00
53262;BME280;39658;51.090;-1.786;2023-08-07T10:25:41;101068.19;;;23.42;100.00
53262;BME280;39658;51.090;-1.786;2023-08-07T10:28:10;101044.41;;;21.61;100.00
53262;BME280;39658;51.090;-1.786;2023-08-07T10:30:40;101004.63;;;20.89;100.00
53262;BME280;39658;51.090;-1.786;2023-08-07T10:33:08;101030.50;;;20.46;100.00
53262;BME280;39658;51.090;-1.786;2023-08-07T10:35:36;101091.03;;;20.31;100.00
53262;BME280;39658;51.090;-1.786;2023-08-07T10:38:06;101112.28;;;19.96;100.00
53262;BME280;39658;51.090;-1.786;2023-08-07T10:40:34;101203.72;;;19.64;100.00
53262;BME280;39658;51.090;-1.786;2023-08-07T10:43:12;101190.38;;;18.89;100.00
53262;BME280;39658;51.090;-1.786;2023-08-07T10:45:41;101235.63;;;18.80;100.00
53262;BME280;39658;51.090;-1.786;2023-08-07T10:48:10;101259.41;;;19.50;100.00
53262;BME280;39658;51.090;-1.786;2023-08-07T10:50:49;101249.59;;;19.41;100.00
53262;BME280;39658;51.090;-1.786;2023-08-07T10:53:20;101290.44;;;19.14;100.00
53262;BME280;39658;51.090;-1.786;2023-08-07T10:55:48;101264.63;;;18.75;100.00
53262;BME280;39658;51.090;-1.786;2023-08-07T10:58:22;101219.06;;;19.34;100.00
53262;BME280;39658;51.090;-1.786;2023-08-07T11:00:52;101146.44;;;20.56;100.00
53262;BME280;39658;51.090;-1.786;2023-08-07T11:03:40;101074.34;;;21.48;100.00
53262;BME280;39658;51.090;-1.786;2023-08-07T11:06:09;101030.78;;;22.29;100.00
53262;BME280;39658;51.090;-1.786;2023-08-07T11:08:36;100973.75;;;22.10;100.00
53262;BME280;39658;51.090;-1.786;2023-08-07T11:11:04;100963.13;;;22.25;100.00
53262;BME280;39658;51.090;-1.786;2023-08-07T11:13:31;100965.31;;;22.21;100.00
53262;BME280;39658;51.090;-1.786;2023-08-07T11:16:00;100970.28;;;21.77;100.00
53262;BME280;39658;51.090;-1.786;2023-08-07T11:18:27;100975.09;;;22.14;100.00
53262;BME280;39658;51.090;-1.786;2023-08-07T11:20:54;100963.81;;;22.11;100.00
53262;BME280;39658;51.090;-1.786;2023-08-07T11:23:23;100977.31;;;22.58;100.00
53262;BME280;39658;51.090;-1.786;2023-08-07T11:25:51;101001.84;;;22.55;100.00
53262;BME280;39658;51.090;-1.786;2023-08-07T11:28:18;101051.59;;;22.27;100.00
53262;BME280;39658;51.090;-1.786;2023-08-07T11:30:45;101058.56;;;21.45;100.00
53262;BME280;39658;51.090;-1.786;2023-08-07T11:33:14;101006.41;;;20.72;100.00
53262;BME280;39658;51.090;-1.786;2023-08-07T11:35:41;100975.47;;;20.52;100.00
53262;BME280;39658;51.090;-1.786;2023-08-07T11:38:08;100967.50;;;21.19;100.00
53262;BME280;39658;51.090;-1.786;2023-08-07T11:40:35;100964.47;;;21.06;100.00
53262;BME280;39658;51.090;-1.786;2023-08-07T11:43:02;100946.59;;;21.80;100.00
53262;BME280;39658;51.090;-1.786;2023-08-07T11:45:29;100970.38;;;22.00;100.00
53262;BME280;39658;51.090;-1.786;2023-08-07T11:47:56;100990.66;;;21.28;100.00
53262;BME280;39658;51.090;-1.786;2023-08-07T11:50:27;100947.03;;;20.93;100.00
53262;BME280;39658;51.090;-1.786;2023-08-07T11:52:54;100946.75;;;21.38;100.00
53262;BME280;39658;51.090;-1.786;2023-08-07T11:55:28;100951.03;;;22.29;100.00
53262;BME280;39658;51.090;-1.786;2023-08-07T11:57:55;100961.00;;;23.00;100.00
53262;BME280;39658;51.090;-1.786;2023-08-07T12:00:24;100963.13;;;23.59;100.00
53262;BME280;39658;51.090;-1.786;2023-08-07T12:02:53;100950.59;;;22.97;100.00
53262;BME280;39658;51.090;-1.786;2023-08-07T12:05:19;100954.94;;;22.66;100.00
53262;BME280;39658;51.090;-1.786;2023-08-07T12:07:48;100943.72;;;21.32;100.00
53262;BME280;39658;51.090;-1.786;2023-08-07T12:10:15;100921.75;;;20.96;100.00
53262;BME280;39658;51.090;-1.786;2023-08-07T12:12:42;100919.78;;;21.47;100.00
53262;BME280;39658;51.090;-1.786;2023-08-07T12:15:10;100920.63;;;21.73;100.00
53262;BME280;39658;51.090;-1.786;2023-08-07T12:17:37;100924.56;;;22.01;100.00
53262;BME280;39658;51.090;-1.786;2023-08-07T12:20:05;100935.56;;;21.59;100.00
53262;BME280;39658;51.090;-1.786;2023-08-07T12:22:35;100920.78;;;21.46;100.00
53262;BME280;39658;51.090;-1.786;2023-08-07T12:25:04;100908.41;;;22.34;100.00
53262;BME280;39658;51.090;-1.786;2023-08-07T12:27:31;100924.41;;;23.98;100.00
53262;BME280;39658;51.090;-1.786;2023-08-07T12:29:58;100953.78;;;24.23;100.00
53262;BME280;39658;51.090;-1.786;2023-08-07T12:32:25;100936.00;;;22.91;100.00
53262;BME280;39658;51.090;-1.786;2023-08-07T12:34:51;100917.59;;;21.43;100.00